Time;durP1;ratioP1;P1;durP2;ratioP2;P2;SDS_P1;SDS_P2;PMS_P1;PMS_P2;Temp;Humidity;BMP_temperature;BMP_pressure;BME280_temperature;BME280_humidity;BME280_pressure;Samples;Min_cycle;Max_cycle;Signal;HPM_P1;HPM_P2
2021/12/05 00:18:28;;;;;;;;;;;2.60;1.40;;;2.99;100.00;94070.84;654684;216;20663;-76
2021/12/05 00:21:15;;;;;;;;;;;2.60;1.40;;;2.98;100.00;94072.78;647976;217;20336;-75
2021/12/05 00:23:46;;;;;;;;;;;2.60;1.40;;;2.98;100.00;94085.57;649188;217;20316;-76
2021/12/05 00:26:22;;;;;;;;;;;2.60;1.40;;;2.95;100.00;94083.39;653358;216;20320;-76
2021/12/05 00:29:11;;;;;;;;;;;2.60;1.40;;;2.96;100.00;94080.39;622641;226;20342;-75
2021/12/05 00:31:56;;;;;;;;;;;2.60;1.40;;;2.93;100.00;94092.20;653859;212;20325;-75
2021/12/05 00:39:13;;;;;;;;;;;2.60;1.40;;;2.89;100.00;94085.73;653710;212;24993;-75
2021/12/05 00:42:05;;;;;;;;;;;2.60;1.40;;;2.81;100.00;94089.80;654298;212;24846;-75
2021/12/05 00:45:08;;;;;;;;;;;2.50;1.40;;;2.78;100.00;94094.42;648629;214;24827;-75
2021/12/05 00:53:54;;;;;;;;;;;2.30;1.40;;;2.61;100.00;94095.94;654224;216;24834;-75
2021/12/05 00:59:31;;;;;;;;;;;2.20;1.40;;;2.68;100.00;94107.03;653182;216;25015;-76
2021/12/05 01:02:15;;;;;;;;;;;2.30;1.40;;;2.61;100.00;94117.61;652099;216;24742;-76
2021/12/05 01:08:04;;;;;;;;;;;2.20;1.40;;;2.66;100.00;94122.53;653155;216;24942;-76
2021/12/05 01:13:36;;;;;;;;;;;2.10;1.40;;;2.60;100.00;94129.37;649861;215;24838;-76
2021/12/05 01:16:12;;;;;;;;;;;2.10;1.40;;;2.55;100.00;94133.29;653233;212;24913;-75
2021/12/05 01:18:53;;;;;;;;;;;2.10;1.40;;;2.55;100.00;94125.53;653331;216;25340;-76
2021/12/05 01:21:38;;;;;;;;;;;2.00;1.40;;;2.54;100.00;94126.56;653909;212;24820;-76
2021/12/05 01:24:33;;;;;;;;;;;2.10;1.40;;;2.50;100.00;94129.23;650301;215;24819;-76
2021/12/05 01:27:13;;;;;;;;;;;2.00;1.40;;;2.48;100.00;94127.54;649348;215;25448;-76
2021/12/05 01:29:53;;;;;;;;;;;2.10;1.40;;;2.55;100.00;94125.27;653809;212;24734;-76
2021/12/05 01:36:14;;;;;;;;;;;2.30;1.40;;;2.60;100.00;94122.55;653547;216;24222;-76
2021/12/05 01:39:02;;;;;;;;;;;2.20;1.40;;;2.68;100.00;94130.58;652608;216;24818;-76
2021/12/05 01:53:44;;;;;;;;;;;2.30;1.40;;;2.86;100.00;94142.09;653883;216;25344;-76
2021/12/05 01:59:22;;;;;;;;;;;2.50;1.40;;;2.94;100.00;94135.55;653964;216;24827;-76
2021/12/05 02:02:33;;;;;;;;;;;2.50;1.40;;;2.96;100.00;94128.03;654376;212;24861;-76
2021/12/05 02:07:56;;;;;;;;;;;2.50;1.40;;;2.93;100.00;94129.47;654514;212;24866;-77
2021/12/05 02:16:39;;;;;;;;;;;2.40;1.40;;;2.85;100.00;94127.38;653832;216;24733;-76
2021/12/05 02:36:19;;;;;;;0.40;0.20;;;2.40;1.40;;;2.83;100.00;94115.52;645954;212;32067;-76
2021/12/05 02:41:27;;;;;;;0.45;0.35;;;2.40;1.40;;;2.86;100.00;94114.89;645493;212;42674;-75
2021/12/05 02:44:20;;;;;;;0.60;0.45;;;2.40;1.40;;;2.86;100.00;94125.92;647837;212;31504;-76
2021/12/05 02:47:01;;;;;;;;;;;2.40;1.40;;;2.88;100.00;94127.71;654231;212;24979;-76
2021/12/05 02:49:39;;;;;;;;;;;2.40;1.40;;;2.77;100.00;94139.07;653185;216;24822;-75
2021/12/05 02:52:25;;;;;;;;;;;2.40;1.40;;;2.62;100.00;94165.48;653566;212;24722;-75
2021/12/05 02:55:04;;;;;;;;;;;2.20;1.40;;;2.57;100.00;94156.53;648528;217;24858;-75
2021/12/05 02:57:51;;;;;;;;;;;2.00;1.40;;;2.37;100.00;94153.74;654122;216;24810;-76
2021/12/05 03:03:19;;;;;;;;;;;1.80;1.40;;;2.19;100.00;94159.75;622953;226;25999;-75
2021/12/05 03:06:04;;;;;;;;;;;1.80;1.40;;;2.09;100.00;94154.30;611527;229;24819;-76
2021/12/05 03:08:40;;;;;;;;;;;1.70;1.40;;;2.00;100.00;94153.77;653315;216;24822;-76
2021/12/05 03:11:21;;;;;;;;;;;1.60;1.40;;;1.96;100.00;94157.66;653099;212;24798;-75
2021/12/05 03:14:04;;;;;;;;;;;1.60;1.40;;;1.97;100.00;94159.05;650211;215;25409;-75
2021/12/05 03:16:48;;;;;;;;;;;1.60;1.40;;;1.90;100.00;94160.45;654768;212;24799;-75
2021/12/05 03:19:30;;;;;;;;;;;1.60;1.40;;;1.93;100.00;94158.39;652891;212;25421;-75
2021/12/05 03:22:11;;;;;;;;;;;1.60;1.40;;;1.93;100.00;94164.91;651651;216;24827;-75
2021/12/05 03:24:52;;;;;;;;;;;1.60;1.40;;;1.92;100.00;94167.59;654446;212;24838;-76
2021/12/05 03:27:34;;;;;;;;;;;1.50;1.40;;;1.91;100.00;94164.71;649437;216;24971;-75
2021/12/05 03:30:17;;;;;;;;;;;1.50;1.40;;;1.82;100.00;94166.10;652920;216;24910;-75
2021/12/05 03:32:58;;;;;;;;;;;1.50;1.40;;;1.81;100.00;94160.30;654165;212;25224;-74
2021/12/05 03:35:51;;;;;;;0.40;0.30;;;1.40;1.40;;;1.80;100.00;94161.53;646941;216;32188;-75
2021/12/05 03:38:34;;;;;;;0.40;0.20;;;1.50;1.40;;;1.81;100.00;94168.78;647454;216;31464;-75
2021/12/05 03:41:15;;;;;;;0.40;0.20;;;1.50;1.40;;;1.85;100.00;94171.80;647003;212;31515;-75
2021/12/05 03:43:57;;;;;;;0.40;0.20;;;1.40;1.40;;;1.87;100.00;94171.44;647199;212;31520;-75
2021/12/05 03:46:39;;;;;;;;;;;1.40;1.40;;;1.80;100.00;94173.13;653633;216;24472;-74
2021/12/05 03:49:24;;;;;;;;;;;1.30;1.40;;;1.75;100.00;94174.51;652928;216;24400;-75
2021/12/05 03:52:05;;;;;;;;;;;1.20;1.40;;;1.70;100.00;94180.80;652107;212;24509;-75
2021/12/05 03:54:46;;;;;;;;;;;1.20;1.40;;;1.69;100.00;94176.05;654147;216;24699;-76
2021/12/05 03:57:28;;;;;;;;;;;1.20;1.40;;;1.70;100.00;94171.24;649813;216;25525;-75
2021/12/05 04:00:10;;;;;;;;;;;1.10;1.40;;;1.64;100.00;94173.83;654533;212;24584;-75
2021/12/05 04:02:52;;;;;;;;;;;1.10;1.40;;;1.59;100.00;94166.87;653204;216;25012;-75
2021/12/05 04:05:34;;;;;;;;;;;1.00;1.40;;;1.59;100.00;94169.65;653843;216;24607;-76
2021/12/05 04:08:15;;;;;;;;;;;1.00;1.40;;;1.57;100.00;94168.22;652758;212;25205;-76
2021/12/05 04:10:57;;;;;;;;;;;1.10;1.40;;;1.54;100.00;94160.45;639206;221;24618;-76
2021/12/05 04:13:41;;;;;;;;;;;1.00;1.40;;;1.51;100.00;94158.88;652934;216;24790;-76
2021/12/05 04:16:23;;;;;;;;;;;1.00;1.40;;;1.57;100.00;94150.92;654268;216;24620;-75
2021/12/05 04:19:04;;;;;;;;;;;0.90;1.40;;;1.63;100.00;94151.34;653385;212;24465;-76
2021/12/05 04:21:46;;;;;;;;;;;1.00;1.40;;;1.61;100.00;94147.41;652601;216;25228;-73
2021/12/05 04:24:28;;;;;;;;;;;1.10;1.40;;;1.63;100.00;94143.28;653667;212;24399;-76
2021/12/05 04:27:10;;;;;;;;;;;1.00;1.40;;;1.58;100.00;94147.81;654162;216;24600;-76
2021/12/05 04:29:52;;;;;;;;;;;1.00;1.40;;;1.53;100.00;94152.02;653990;212;24757;-76
2021/12/05 04:32:34;;;;;;;;;;;0.90;1.40;;;1.51;100.00;94148.67;648406;214;25193;-75
2021/12/05 04:35:51;;;;;;;;;;;1.00;1.40;;;1.58;100.00;94142.90;653937;212;24810;-76
2021/12/05 04:38:33;;;;;;;;;;;1.00;1.40;;;1.58;100.00;94143.48;653292;212;24862;-75
2021/12/05 04:41:14;;;;;;;;;;;1.00;1.40;;;1.61;100.00;94140.25;648236;217;24940;-76
2021/12/05 04:44:02;;;;;;;;;;;1.00;1.40;;;1.58;100.00;94143.38;653589;216;24808;-76
2021/12/05 04:46:43;;;;;;;;;;;0.90;1.40;;;1.60;100.00;94144.00;622607;227;25296;-76
2021/12/05 04:49:29;;;;;;;;;;;0.90;1.40;;;1.65;100.00;94143.42;652941;212;24908;-76
2021/12/05 04:52:12;;;;;;;;;;;0.90;1.40;;;1.63;100.00;94148.36;649578;215;24838;-75
2021/12/05 04:54:54;;;;;;;;;;;1.00;1.40;;;1.60;100.00;94143.62;652946;216;24816;-75
2021/12/05 04:57:35;;;;;;;;;;;0.90;1.40;;;1.63;100.00;94137.41;653375;212;25324;-75
2021/12/05 05:00:21;;;;;;;;;;;1.00;1.40;;;1.69;100.00;94138.98;654940;216;24829;-75
2021/12/05 05:03:03;;;;;;;;;;;1.10;1.40;;;1.68;100.00;94128.73;653700;216;24803;-75
2021/12/05 05:05:48;;;;;;;;;;;1.10;1.40;;;1.71;100.00;94131.65;644396;216;24842;-76
2021/12/05 05:08:29;;;;;;;;;;;1.20;1.40;;;1.76;100.00;94136.25;648845;217;24724;-76
2021/12/05 05:11:08;;;;;;;;;;;1.20;1.40;;;1.76;100.00;94135.06;653609;216;24816;-76
2021/12/05 05:13:50;;;;;;;;;;;1.20;1.40;;;1.79;100.00;94134.94;652226;216;24830;-76
2021/12/05 05:16:35;;;;;;;;;;;1.20;1.40;;;1.82;100.00;94123.95;652885;216;24971;-75
2021/12/05 05:19:18;;;;;;;;;;;1.30;1.40;;;1.78;100.00;94117.52;653145;212;25242;-76
2021/12/05 05:22:16;;;;;;;;;;;1.20;1.40;;;1.78;100.00;94127.25;648404;217;24731;-76
2021/12/05 05:30:54;;;;;;;;;;;1.40;1.40;;;1.77;100.00;94109.04;653723;216;24873;-75
2021/12/05 05:39:17;;;;;;;;;;;1.30;1.40;;;1.76;100.00;94118.83;648247;217;25406;-76
2021/12/05 05:47:12;;;;;;;;;;;1.10;1.40;;;1.61;100.00;94120.50;652929;216;24820;-75
2021/12/05 05:50:00;;;;;;;;;;;1.10;1.40;;;1.59;100.00;94127.41;653268;216;24811;-76
2021/12/05 05:52:43;;;;;;;;;;;1.10;1.40;;;1.63;100.00;94131.48;649628;216;24827;-76
2021/12/05 05:55:24;;;;;;;;;;;1.20;1.40;;;1.64;100.00;94131.36;649631;214;24882;-75
2021/12/05 05:58:12;;;;;;;;;;;1.20;1.40;;;1.60;100.00;94122.31;654178;216;24955;-76
2021/12/05 06:01:01;;;;;;;;;;;1.10;1.40;;;1.57;100.00;94124.95;649165;215;24881;-76
2021/12/05 06:03:33;;;;;;;;;;;0.90;1.40;;;1.69;100.00;94123.77;653994;216;24740;-76
2021/12/05 06:06:16;;;;;;;;;;;0.90;1.40;;;1.68;100.00;94124.95;642839;212;24886;-76
2021/12/05 06:09:00;;;;;;;;;;;0.90;1.40;;;1.63;100.00;94133.61;655159;216;24810;-77
2021/12/05 06:11:41;;;;;;;;;;;0.80;1.40;;;1.56;100.00;94131.64;652899;212;24837;-76
2021/12/05 06:14:24;;;;;;;;;;;1.00;1.40;;;1.66;100.00;94134.70;655224;212;24914;-76
2021/12/05 06:17:04;;;;;;;;;;;1.10;1.40;;;1.72;100.00;94138.58;654249;212;25019;-76
2021/12/05 06:19:48;;;;;;;;;;;1.20;1.40;;;1.79;100.00;94138.72;652832;212;24813;-76
2021/12/05 06:22:31;;;;;;;;;;;1.30;1.40;;;1.79;100.00;94146.48;652984;212;25476;-76
2021/12/05 06:25:18;;;;;;;;;;;1.30;1.40;;;1.82;100.00;94145.70;654620;212;24792;-76
2021/12/05 06:27:58;;;;;;;;;;;1.40;1.40;;;1.85;100.00;94143.05;655610;216;24803;-76
2021/12/05 06:38:57;;;;;;;0.60;0.60;;;1.40;1.40;;;1.90;100.00;94146.66;647412;216;42248;-76
2021/12/05 06:47:02;;;;;;;0.40;0.30;;;1.20;1.40;;;1.85;100.00;94151.91;647655;216;32023;-76
2021/12/05 06:49:43;;;;;;;0.40;0.20;;;1.20;1.40;;;1.93;100.00;94142.04;646824;212;32198;-76
2021/12/05 06:52:24;;;;;;;0.65;0.50;;;1.40;1.40;;;2.01;100.00;94144.67;618355;222;31848;-76
2021/12/05 06:55:06;;;;;;;0.85;0.70;;;1.50;1.40;;;2.04;100.00;94151.06;647379;212;31552;-76
2021/12/05 06:57:48;;;;;;;0.40;0.30;;;1.40;1.40;;;2.05;100.00;94153.70;619605;222;31838;-77
2021/12/05 07:00:33;;;;;;;0.40;0.40;;;1.40;1.40;;;2.05;100.00;94161.45;647384;216;42565;-76
2021/12/05 07:03:15;;;;;;;0.40;0.40;;;1.30;1.40;;;2.05;100.00;94159.31;647605;216;31518;-76
2021/12/05 07:06:04;;;;;;;0.40;0.20;;;1.30;1.40;;;2.07;100.00;94161.64;637498;216;32260;-75
2021/12/05 07:08:43;;;;;;;0.40;0.30;;;1.40;1.40;;;2.07;100.00;94167.16;646518;216;31476;-76
2021/12/05 07:11:30;;;;;;;0.50;0.30;;;1.40;1.40;;;2.07;100.00;94166.94;648104;212;31492;-76
2021/12/05 07:17:08;;;;;;;0.40;0.30;;;1.50;1.40;;;2.20;100.00;94171.23;619536;226;31852;-76
2021/12/05 07:25:45;;;;;;;0.55;0.55;;;1.70;1.40;;;2.43;100.00;94170.29;646435;212;32228;-76
2021/12/05 07:41:52;;;;;;;0.50;0.40;;;1.60;1.40;;;2.33;100.00;94158.01;647982;212;31926;-76
2021/12/05 07:44:27;;;;;;;0.40;0.30;;;1.60;1.40;;;2.43;100.00;94156.70;646004;212;31503;-76
2021/12/05 07:47:18;;;;;;;1.00;0.70;;;1.60;1.40;;;2.43;100.00;94161.03;647735;216;31515;-78
2021/12/05 07:49:55;;;;;;;0.40;0.40;;;1.70;1.40;;;2.67;100.00;94155.05;646886;212;31493;-76
2021/12/05 07:52:38;;;;;;;0.40;0.30;;;1.70;1.40;;;2.60;100.00;94158.42;648051;216;31564;-77
2021/12/05 07:55:29;;;;;;;3.20;0.40;;;1.80;1.40;;;2.78;100.00;94161.00;647194;216;31514;-76
2021/12/05 07:58:23;;;;;;;0.50;0.40;;;2.00;1.40;;;3.03;100.00;94161.20;648560;212;31497;-76
2021/12/05 08:01:21;;;;;;;1.00;0.60;;;2.10;1.40;;;3.06;100.00;94166.73;646407;212;31490;-75
2021/12/05 08:15:09;;;;;;;0.40;0.20;;;2.40;1.40;;;3.39;100.00;94149.86;647293;212;31493;-76
2021/12/05 08:17:36;;;;;;;1.10;0.60;;;2.50;1.40;;;3.61;100.00;94148.45;647000;216;31538;-76
2021/12/05 08:20:19;;;;;;;0.40;0.30;;;2.70;1.40;;;3.54;100.00;94137.53;647708;216;31480;-75
2021/12/05 08:23:00;;;;;;;0.40;0.30;;;2.70;1.40;;;3.61;100.00;94139.78;647379;216;31473;-75
2021/12/05 08:25:46;;;;;;;1.50;0.50;;;2.80;1.40;;;3.50;100.00;94134.78;646432;216;32115;-76
2021/12/05 08:28:46;;;;;;;0.40;0.30;;;2.80;1.40;;;3.54;100.00;94139.03;620848;226;32468;-75
2021/12/05 08:31:31;;;;;;;0.40;0.20;;;2.90;1.40;;;3.68;100.00;94137.90;647523;216;31492;-76
2021/12/05 08:41:43;;;;;;;;;;;2.90;1.40;;;3.67;100.00;94137.37;653696;216;24804;-77
2021/12/05 09:21:09;;;;;;;;;;;2.90;1.40;;;3.86;100.00;94143.45;652348;212;24730;-77
2021/12/05 09:24:00;;;;;;;;;;;3.00;1.40;;;4.02;100.00;94150.76;653616;212;25090;-76
2021/12/05 09:26:43;;;;;;;;;;;3.10;1.40;;;3.86;100.00;94154.13;654245;216;24713;-77
2021/12/05 09:29:23;;;;;;;;;;;3.00;1.40;;;3.84;100.00;94156.95;653542;212;24816;-78
2021/12/05 09:38:59;;;;;;;0.43;0.32;;;3.20;1.40;;;4.31;100.00;94161.98;646843;212;31478;-75
2021/12/05 10:06:52;;;;;;;0.50;0.40;;;3.90;1.40;;;4.79;100.00;94132.67;646819;216;31572;-78
2021/12/05 10:15:53;;;;;;;0.40;0.20;;;4.10;1.40;;;5.08;100.00;94138.30;645750;212;31629;-77
2021/12/05 10:19:11;;;;;;;0.70;0.70;;;4.30;1.40;;;5.18;100.00;94140.95;618386;226;32094;-78
2021/12/05 10:27:23;;;;;;;1.80;0.60;;;4.30;1.40;;;4.97;100.00;94146.23;647309;216;32126;-78
2021/12/05 10:36:04;;;;;;;1.40;0.60;;;4.00;1.40;;;4.85;100.00;94140.37;645724;216;31514;-78
2021/12/05 10:38:50;;;;;;;0.40;0.20;;;4.00;1.40;;;4.84;100.00;94141.24;646567;216;31489;-77
2021/12/05 10:41:58;;;;;;;0.80;0.30;;;3.90;1.40;;;5.04;100.00;94135.27;647435;216;31526;-77
2021/12/05 10:44:26;;;;;;;1.10;0.70;;;4.10;1.40;;;5.17;100.00;94136.69;646815;212;31804;-77
2021/12/05 10:47:08;;;;;;;1.30;0.90;;;4.10;1.40;;;4.97;100.00;94141.19;632661;221;31673;-77
2021/12/05 10:49:50;;;;;;;0.50;0.30;;;4.00;1.40;;;4.82;100.00;94136.16;647172;216;42172;-77
2021/12/05 10:52:32;;;;;;;0.40;0.30;;;4.00;1.40;;;5.05;100.00;94133.41;647291;212;42390;-77
2021/12/05 10:55:13;;;;;;;0.40;0.30;;;4.10;1.40;;;4.83;100.00;94136.22;647124;216;31475;-77
2021/12/05 10:57:57;;;;;;;1.50;0.30;;;4.00;1.40;;;5.02;100.00;94142.19;619767;226;31837;-76
2021/12/05 11:00:37;;;;;;;0.43;0.20;;;4.00;1.40;;;5.09;100.00;94133.27;646740;214;42770;-77
2021/12/05 11:03:19;;;;;;;1.60;0.28;;;4.10;1.40;;;5.21;100.00;94135.61;646017;216;42117;-76
2021/12/05 11:06:00;;;;;;;0.80;0.40;;;4.20;1.40;;;5.35;100.00;94136.52;637056;216;31658;-77
2021/12/05 11:08:42;;;;;;;1.10;0.50;;;4.20;1.40;;;5.09;100.00;94134.23;646521;216;31578;-77
2021/12/05 11:11:27;;;;;;;0.50;0.30;;;4.10;1.40;;;5.19;100.00;94135.69;619625;222;43208;-77
2021/12/05 11:14:09;;;;;;;0.40;0.22;;;4.00;1.40;;;5.16;100.00;94142.19;646798;216;31788;-77
2021/12/05 11:16:54;;;;;;;1.12;0.40;;;4.00;1.40;;;5.11;100.00;94137.68;645875;212;32484;-75
2021/12/05 11:19:41;;;;;;;0.43;0.32;;;4.00;1.40;;;4.85;100.00;94133.98;646548;212;31510;-77
2021/12/05 11:22:26;;;;;;;0.60;0.50;;;3.90;1.40;;;4.99;100.00;94136.70;646769;212;42156;-76
2021/12/05 11:25:28;;;;;;;0.90;0.40;;;4.00;1.40;;;5.28;100.00;94135.94;646043;216;31526;-77
2021/12/05 11:28:11;;;;;;;0.70;0.30;;;4.00;1.40;;;5.16;100.00;94138.27;619266;226;33786;-77
2021/12/05 11:30:58;;;;;;;0.80;0.30;;;4.00;1.40;;;5.27;100.00;94139.78;646292;215;31479;-78
2021/12/05 11:35:52;;;;;;;1.10;0.30;;;3.90;1.40;;;5.03;100.00;94132.92;645296;216;31681;-77
2021/12/05 11:38:34;;;;;;;0.50;0.30;;;3.90;1.40;;;5.00;100.00;94138.34;648340;216;42114;-76
2021/12/05 11:41:16;;;;;;;0.90;0.50;;;4.00;1.40;;;5.05;100.00;94135.34;620799;222;32947;-77
2021/12/05 11:44:00;;;;;;;0.50;0.40;;;3.90;1.40;;;4.88;100.00;94138.16;647147;212;31591;-77
2021/12/05 11:46:44;;;;;;;1.00;0.70;;;3.90;1.40;;;5.08;100.00;94139.47;646253;216;31483;-77
2021/12/05 11:49:25;;;;;;;1.70;0.50;;;4.00;1.40;;;5.29;100.00;94138.21;620113;226;31859;-77
2021/12/05 11:52:08;;;;;;;1.30;0.60;;;4.10;1.40;;;5.34;100.00;94137.58;646565;216;31591;-77
2021/12/05 11:54:51;;;;;;;1.53;0.50;;;4.20;1.40;;;5.59;100.00;94131.92;646916;216;36959;-77
2021/12/05 11:57:33;;;;;;;1.45;0.60;;;4.20;1.40;;;5.71;100.00;94126.95;646901;216;42639;-77
2021/12/05 12:00:17;;;;;;;0.40;0.30;;;4.20;1.40;;;5.71;100.00;94129.37;647685;216;31548;-77
2021/12/05 12:02:59;;;;;;;0.80;0.47;;;4.20;1.40;;;5.51;100.00;94127.35;646762;216;31710;-78
2021/12/05 12:05:41;;;;;;;0.60;0.30;;;4.10;1.40;;;5.40;100.00;94132.03;638804;216;31788;-77
2021/12/05 12:08:26;;;;;;;0.70;0.60;;;4.00;1.40;;;5.34;100.00;94130.69;646705;216;32063;-77
2021/12/05 12:11:08;;;;;;;0.50;0.37;;;4.10;1.40;;;5.39;100.00;94125.59;619201;222;31746;-78
2021/12/05 12:13:51;;;;;;;0.50;0.40;;;4.10;1.40;;;5.33;100.00;94134.20;648063;212;31878;-77
2021/12/05 12:16:33;;;;;;;1.00;0.60;;;4.10;1.40;;;5.38;100.00;94130.53;647902;212;31673;-79
2021/12/05 12:19:13;;;;;;;0.40;0.40;;;4.10;1.40;;;5.46;100.00;94130.66;619840;222;31865;-78
2021/12/05 12:21:59;;;;;;;0.50;0.30;;;4.00;1.40;;;5.48;100.00;94125.37;647072;216;31480;-77
2021/12/05 12:24:37;;;;;;;0.60;0.40;;;4.00;1.40;;;5.64;100.00;94119.55;647393;212;42670;-77
2021/12/05 12:27:20;;;;;;;0.83;0.37;;;4.00;1.40;;;5.36;100.00;94124.84;646831;216;31507;-77
2021/12/05 12:30:01;;;;;;;0.47;0.30;;;4.00;1.40;;;5.39;100.00;94119.63;647643;216;31512;-77
2021/12/05 12:32:43;;;;;;;0.47;0.30;;;4.00;1.40;;;5.29;100.00;94123.50;645894;212;31504;-75
2021/12/05 12:35:51;;;;;;;0.62;0.30;;;3.90;1.40;;;5.20;100.00;94120.03;647006;216;32363;-75
2021/12/05 12:38:35;;;;;;;1.80;0.40;;;3.90;1.40;;;5.38;100.00;94118.67;646350;212;31810;-76
2021/12/05 12:41:20;;;;;;;0.50;0.47;;;3.90;1.40;;;5.44;100.00;94118.88;646342;216;39434;-76
2021/12/05 12:44:03;;;;;;;0.50;0.30;;;4.00;1.40;;;5.29;100.00;94125.50;647365;216;31698;-74
2021/12/05 12:46:50;;;;;;;0.60;0.40;;;3.90;1.40;;;5.40;100.00;94125.16;646847;216;31622;-76
2021/12/05 12:49:30;;;;;;;1.20;0.40;;;3.90;1.40;;;5.19;100.00;94128.44;646047;212;31494;-75
2021/12/05 12:52:12;;;;;;;0.40;0.20;;;3.90;1.40;;;5.51;100.00;94127.53;646118;216;31521;-75
2021/12/05 12:54:55;;;;;;;0.80;0.60;;;4.00;1.40;;;5.37;100.00;94131.54;648145;212;31465;-74
2021/12/05 12:57:35;;;;;;;1.57;0.47;;;3.90;1.40;;;5.44;100.00;94126.88;646327;212;31532;-76
2021/12/05 13:00:20;;;;;;;0.70;0.40;;;4.00;1.40;;;5.43;100.00;94126.03;619190;225;32059;-75
2021/12/05 13:03:13;;;;;;;0.80;0.50;;;4.00;1.40;;;5.56;100.00;94120.10;646280;216;31540;-76
2021/12/05 13:11:12;;;;;;;0.50;0.40;;;4.00;1.40;;;5.48;100.00;94122.48;645921;216;31490;-75
2021/12/05 13:13:59;;;;;;;0.40;0.30;;;4.00;1.40;;;5.35;100.00;94124.11;620149;226;32049;-76
2021/12/05 13:16:41;;;;;;;0.45;0.45;;;4.00;1.40;;;5.46;100.00;94118.56;646463;212;31498;-75
2021/12/05 13:19:22;;;;;;;0.40;0.30;;;4.00;1.40;;;5.45;100.00;94125.80;646722;213;31514;-75
2021/12/05 13:22:04;;;;;;;0.70;0.50;;;4.00;1.40;;;5.64;100.00;94124.44;647046;216;31510;-75
2021/12/05 13:24:50;;;;;;;0.40;0.30;;;4.10;1.40;;;5.45;100.00;94124.02;646875;212;31586;-75
2021/12/05 13:27:32;;;;;;;0.60;0.40;;;4.00;1.40;;;5.68;100.00;94127.05;618143;226;31874;-75
2021/12/05 13:30:12;;;;;;;0.40;0.30;;;4.00;1.40;;;5.78;100.00;94127.34;646827;216;42116;-76
2021/12/05 13:35:57;;;;;;;0.43;0.30;;;4.10;1.40;;;5.73;100.00;94127.34;618731;222;31908;-75
2021/12/05 13:38:38;;;;;;;0.50;0.50;;;4.10;1.40;;;5.76;100.00;94128.08;647141;212;31500;-75
2021/12/05 13:41:19;;;;;;;0.40;0.40;;;4.00;1.40;;;5.62;100.00;94131.84;647603;216;31589;-75
2021/12/05 13:44:01;;;;;;;0.50;0.20;;;3.90;1.40;;;5.59;100.00;94136.67;646929;216;31535;-75
2021/12/05 13:46:45;;;;;;;0.40;0.30;;;3.90;1.40;;;5.65;100.00;94135.23;647003;212;42122;-74
2021/12/05 13:49:32;;;;;;;1.30;0.60;;;3.90;1.40;;;5.72;100.00;94136.84;646362;212;32011;-75
2021/12/05 13:52:29;;;;;;;1.00;0.60;;;4.00;1.40;;;5.62;100.00;94139.06;647005;212;31600;-75
2021/12/05 13:55:26;;;;;;;0.50;0.40;;;4.00;1.40;;;5.43;100.00;94137.44;647555;216;31506;-75
2021/12/05 13:58:29;;;;;;;0.90;0.50;;;3.90;1.40;;;5.19;100.00;94136.27;646670;216;31475;-75
2021/12/05 14:04:08;;;;;;;1.25;0.55;;;3.80;1.40;;;5.28;100.00;94142.00;643273;215;31566;-75
2021/12/05 14:09:47;;;;;;;0.80;0.40;;;3.90;1.40;;;4.98;100.00;94141.75;647577;212;31515;-75
2021/12/05 14:12:30;;;;;;;1.00;0.60;;;3.80;1.40;;;4.92;100.00;94141.56;647282;216;31522;-75
2021/12/05 14:15:10;;;;;;;0.70;0.60;;;3.80;1.40;;;5.12;100.00;94140.67;646383;216;31478;-75
2021/12/05 14:17:53;;;;;;;1.10;0.60;;;3.80;1.40;;;5.15;100.00;94145.28;620050;226;31867;-75
2021/12/05 14:20:33;;;;;;;0.73;0.73;;;3.70;1.40;;;5.04;100.00;94143.74;647217;212;31514;-75
2021/12/05 14:23:22;;;;;;;1.77;0.55;;;3.70;1.40;;;4.69;100.00;94145.13;646535;212;31591;-75
2021/12/05 14:26:13;;;;;;;0.80;0.45;;;3.60;1.40;;;4.65;100.00;94143.45;619959;226;31899;-75
2021/12/05 14:29:00;;;;;;;0.50;0.37;;;3.60;1.40;;;4.78;100.00;94149.30;646423;216;31476;-76
2021/12/05 14:31:50;;;;;;;1.20;0.50;;;3.50;1.40;;;4.77;100.00;94151.80;647935;212;31519;-75
2021/12/05 14:35:51;;;;;;;0.80;0.60;;;3.50;1.40;;;4.37;100.00;94166.00;619701;222;32356;-76
2021/12/05 14:38:34;;;;;;;0.43;0.40;;;3.20;1.40;;;3.59;100.00;94168.48;647994;216;42789;-75
2021/12/05 14:41:16;;;;;;;0.40;0.20;;;2.70;1.40;;;3.19;100.00;94171.28;647816;216;31800;-75
2021/12/05 14:43:57;;;;;;;1.10;0.80;;;2.20;1.40;;;2.92;100.00;94175.41;646770;216;31506;-74
2021/12/05 14:46:55;;;;;;;0.50;0.50;;;2.00;1.40;;;2.56;100.00;94179.55;646092;216;31489;-75
2021/12/05 14:49:37;;;;;;;1.10;0.50;;;1.70;1.40;;;2.35;100.00;94182.06;647266;212;31661;-75
2021/12/05 14:54:56;;;;;;;0.73;0.37;;;1.30;1.40;;;1.93;100.00;94195.16;646578;212;31588;-75
2021/12/05 14:57:44;;;;;;;0.70;0.70;;;1.20;1.40;;;1.93;100.00;94191.63;646812;212;31610;-76
2021/12/05 15:00:27;;;;;;;0.40;0.20;;;1.20;1.40;;;1.78;100.00;94194.84;646336;216;31618;-75
2021/12/05 15:03:13;;;;;;;0.70;0.30;;;1.00;1.40;;;1.66;100.00;94192.77;620262;226;32004;-75
2021/12/05 15:05:59;;;;;;;0.50;0.50;;;1.00;1.40;;;1.56;100.00;94189.12;614711;226;31983;-77
2021/12/05 15:08:47;;;;;;;0.63;0.63;;;1.00;1.40;;;1.48;100.00;94187.55;646059;216;42683;-76
2021/12/05 15:11:28;;;;;;;1.80;0.90;;;0.90;1.40;;;1.45;100.00;94187.58;647770;216;43244;-75
2021/12/05 15:14:11;;;;;;;0.50;0.50;;;1.00;1.40;;;1.48;100.00;94183.97;647189;216;31654;-76
2021/12/05 15:17:02;;;;;;;0.50;0.50;;;0.90;1.40;;;1.51;100.00;94188.30;646447;216;31506;-75
2021/12/05 15:19:43;;;;;;;1.10;1.00;;;0.90;1.40;;;1.46;100.00;94190.98;619516;226;31928;-75
2021/12/05 15:22:25;;;;;;;1.20;1.10;;;1.00;1.40;;;1.50;100.00;94197.92;646848;216;31633;-74
2021/12/05 15:25:10;;;;;;;1.35;1.00;;;1.00;1.40;;;1.47;100.00;94197.59;647932;212;31593;-76
2021/12/05 15:27:52;;;;;;;2.20;2.00;;;1.00;1.40;;;1.48;100.00;94197.75;647071;212;31553;-76
2021/12/05 15:30:36;;;;;;;1.62;1.52;;;1.00;1.40;;;1.44;100.00;94203.77;620080;226;31925;-77
2021/12/05 15:35:59;;;;;;;1.95;1.02;;;1.00;1.40;;;1.39;100.00;94196.59;646595;216;31516;-76
2021/12/05 15:38:42;;;;;;;0.70;0.70;;;0.90;1.40;;;1.40;100.00;94199.63;645979;212;31737;-76
2021/12/05 15:41:25;;;;;;;2.40;0.93;;;0.90;1.40;;;1.40;100.00;94200.31;646902;216;43401;-76
2021/12/05 15:44:05;;;;;;;0.40;0.30;;;0.90;1.40;;;1.48;100.00;94199.03;647069;216;31532;-76
2021/12/05 15:46:48;;;;;;;0.80;0.47;;;0.90;1.40;;;1.47;100.00;94200.22;647098;216;31498;-76
2021/12/05 15:49:47;;;;;;;1.00;0.70;;;0.90;1.40;;;1.55;100.00;94199.92;646335;216;31562;-75
2021/12/05 15:52:43;;;;;;;3.65;1.25;;;1.00;1.40;;;1.55;100.00;94202.80;647310;216;32862;-76
2021/12/05 15:55:31;;;;;;;0.80;0.70;;;1.00;1.40;;;1.56;100.00;94208.83;630223;222;31741;-73
2021/12/05 15:58:12;;;;;;;1.23;1.02;;;1.00;1.40;;;1.77;100.00;94204.99;646793;212;31530;-75
2021/12/05 16:00:57;;;;;;;0.70;0.70;;;1.00;1.40;;;1.93;100.00;94209.05;647367;216;31498;-74
2021/12/05 16:03:42;;;;;;;1.40;0.80;;;1.10;1.40;;;1.81;100.00;94216.23;646952;216;31593;-75
2021/12/05 16:06:30;;;;;;;1.10;1.10;;;1.10;1.40;;;1.94;100.00;94213.27;635574;216;32127;-74
2021/12/05 16:09:15;;;;;;;0.40;0.32;;;1.10;1.40;;;1.98;100.00;94217.34;647345;215;31481;-75
2021/12/05 16:12:08;;;;;;;0.90;0.70;;;1.10;1.40;;;1.98;100.00;94220.18;646098;216;31570;-74
2021/12/05 16:14:52;;;;;;;5.93;4.65;;;1.10;1.40;;;1.93;100.00;94227.06;647248;216;31561;-75
2021/12/05 16:17:34;;;;;;;7.10;5.22;;;1.10;1.40;;;1.95;100.00;94226.67;647029;216;31569;-75
2021/12/05 16:20:17;;;;;;;4.90;2.80;;;1.10;1.40;;;1.94;100.00;94227.96;646601;212;31824;-74
2021/12/05 16:23:20;;;;;;;1.80;1.70;;;1.10;1.40;;;1.92;100.00;94230.81;645334;216;31567;-74
2021/12/05 16:26:12;;;;;;;1.60;1.50;;;1.10;1.40;;;1.91;100.00;94238.19;619588;222;32102;-74
2021/12/05 16:28:58;;;;;;;0.70;0.70;;;1.10;1.40;;;1.82;100.00;94235.73;619892;222;31933;-75
2021/12/05 16:31:41;;;;;;;2.47;0.87;;;1.10;1.40;;;1.74;100.00;94236.92;646899;216;33405;-75
2021/12/05 16:35:53;;;;;;;1.00;0.90;;;1.00;1.40;;;1.77;100.00;94244.59;647139;216;31500;-75
2021/12/05 16:38:34;;;;;;;0.80;0.80;;;1.00;1.40;;;1.72;100.00;94249.66;646013;216;31531;-75